createdAt,value
2022-10-28T00:04:40.467Z,4.85
2022-10-28T00:09:55.576Z,4.20
2022-10-28T00:15:10.789Z,4.45
2022-10-28T00:20:26.476Z,3.97
2022-10-28T00:25:41.471Z,4.63
2022-10-28T00:30:56.504Z,4.28
2022-10-28T00:36:11.789Z,3.85
2022-10-28T00:41:27.778Z,4.28
2022-10-28T00:46:43.773Z,3.85
2022-10-28T00:51:59.470Z,3.83
2022-10-28T00:57:14.783Z,4.32
2022-10-28T01:02:30.803Z,3.97
2022-10-28T01:07:46.450Z,3.72
2022-10-28T01:13:01.457Z,4.00
2022-10-28T01:18:16.803Z,4.47
2022-10-28T01:23:32.234Z,4.00
2022-10-28T01:28:47.524Z,4.22
2022-10-28T01:34:02.487Z,4.25
2022-10-28T01:39:17.467Z,4.03
2022-10-28T01:44:32.805Z,4.25
2022-10-28T01:49:48.232Z,4.40
2022-10-28T01:55:03.292Z,4.25
2022-10-28T02:00:18.861Z,3.78
2022-10-28T02:05:34.460Z,4.05
2022-10-28T02:10:49.870Z,4.43
2022-10-28T02:16:05.479Z,3.80
2022-10-28T02:21:20.482Z,4.25
2022-10-28T02:26:35.778Z,4.45
2022-10-28T02:31:50.829Z,4.05
2022-10-28T02:37:06.490Z,4.22
2022-10-28T02:42:21.525Z,4.00
2022-10-28T02:47:36.487Z,4.03
2022-10-28T02:52:51.627Z,4.40
2022-10-28T02:58:06.780Z,4.00
2022-10-28T03:03:22.831Z,4.72
2022-10-28T03:08:38.541Z,4.72
2022-10-28T03:13:53.559Z,4.18
2022-10-28T03:24:23.543Z,4.53
2022-10-28T03:29:40.869Z,4.60
2022-10-28T03:34:59.482Z,4.07
2022-10-28T03:40:14.853Z,5.35
2022-10-28T03:45:30.754Z,4.55
2022-10-28T03:50:46.539Z,6.25
2022-10-28T03:56:01.791Z,7.00
2022-10-28T04:01:17.842Z,7.13
2022-10-28T04:06:33.867Z,9.48
2022-10-28T04:11:49.504Z,12.07
2022-10-28T04:17:04.527Z,11.90
2022-10-28T04:22:19.543Z,12.05
2022-10-28T04:27:34.766Z,11.85
2022-10-28T04:32:50.794Z,10.73
2022-10-28T04:38:06.477Z,9.70
2022-10-28T04:43:21.494Z,9.15
2022-10-28T04:48:36.538Z,9.65
2022-10-28T04:53:51.535Z,9.00
2022-10-28T04:59:06.499Z,8.75
2022-10-28T05:04:21.852Z,8.73
2022-10-28T05:09:37.452Z,6.95
2022-10-28T05:14:53.285Z,7.18
2022-10-28T05:20:08.538Z,6.97
2022-10-28T05:25:23.603Z,6.75
2022-10-28T05:30:38.292Z,5.90
2022-10-28T05:35:53.499Z,6.38
2022-10-28T05:41:08.481Z,6.00
2022-10-28T05:46:23.458Z,6.75
2022-10-28T05:51:38.533Z,6.55
2022-10-28T05:56:53.500Z,6.82
2022-10-28T06:02:08.553Z,6.18
2022-10-28T06:07:23.493Z,7.03
2022-10-28T06:12:36.974Z,5.70
2022-10-28T06:17:51.986Z,6.50
2022-10-28T06:23:07.083Z,6.03
2022-10-28T06:28:21.962Z,6.40
2022-10-28T06:33:36.721Z,5.53
2022-10-28T06:38:52.290Z,5.80
2022-10-28T06:44:08.001Z,6.68
2022-10-28T06:49:24.567Z,6.00
2022-10-28T06:54:39.319Z,6.50
2022-10-28T06:59:54.731Z,6.20
2022-10-28T07:05:10.507Z,5.95
2022-10-28T07:10:25.628Z,6.13
2022-10-28T07:15:40.537Z,6.57
2022-10-28T07:20:55.875Z,5.88
2022-10-28T07:26:11.522Z,6.00
2022-10-28T07:31:26.595Z,5.20
2022-10-28T07:36:41.839Z,5.18
2022-10-28T07:41:57.558Z,5.03
2022-10-28T07:47:12.642Z,5.30
2022-10-28T07:52:27.573Z,6.00
2022-10-28T07:57:42.570Z,5.18
2022-10-28T08:02:57.652Z,5.70
2022-10-28T08:08:12.513Z,5.95
2022-10-28T08:13:27.541Z,5.05
2022-10-28T08:18:42.489Z,5.50
2022-10-28T08:23:57.552Z,5.88
2022-10-28T08:29:12.814Z,6.03
2022-10-28T08:34:28.878Z,6.03
2022-10-28T08:39:45.643Z,4.75
2022-10-28T08:45:00.524Z,5.18
2022-10-28T08:50:15.477Z,6.05
2022-10-28T08:55:30.526Z,4.95
2022-10-28T09:00:45.802Z,4.68
2022-10-28T09:06:03.979Z,4.85
2022-10-28T09:11:23.484Z,4.90
2022-10-28T09:16:41.536Z,3.83
2022-10-28T09:21:56.512Z,5.45
2022-10-28T09:27:11.545Z,4.38
2022-10-28T09:32:26.517Z,4.40
2022-10-28T09:37:41.562Z,4.75
2022-10-28T09:42:56.513Z,5.93
2022-10-28T09:48:11.575Z,4.97
2022-10-28T09:53:26.557Z,5.13
2022-10-28T09:58:41.505Z,5.53
2022-10-28T10:03:56.563Z,6.18
2022-10-28T10:09:11.535Z,5.65
2022-10-28T10:14:26.508Z,4.82
2022-10-28T10:19:41.581Z,5.50
2022-10-28T10:24:57.665Z,5.60
2022-10-28T10:30:12.283Z,5.10
2022-10-28T10:35:27.492Z,10.40
2022-10-28T10:40:42.538Z,16.55
2022-10-28T10:45:57.513Z,24.02
2022-10-28T10:51:12.787Z,25.63
2022-10-28T10:56:28.573Z,29.95
2022-10-28T11:01:43.565Z,24.88
2022-10-28T11:06:58.559Z,22.67
2022-10-28T11:12:13.266Z,21.13
2022-10-28T11:17:28.621Z,23.40
2022-10-28T11:22:43.329Z,19.88
2022-10-28T11:28:01.579Z,17.85
2022-10-28T11:33:35.379Z,16.67
2022-10-28T11:44:05.633Z,14.70
2022-10-28T11:49:20.529Z,14.73
2022-10-28T11:54:35.538Z,12.75
2022-10-28T11:59:50.316Z,12.32
2022-10-28T12:05:05.800Z,12.73
2022-10-28T12:10:21.831Z,10.50
2022-10-28T12:15:37.549Z,10.63
2022-10-28T12:20:52.557Z,10.70
2022-10-28T12:26:07.552Z,10.77
2022-10-28T12:31:22.522Z,9.95
2022-10-28T12:36:37.563Z,8.93
2022-10-28T12:41:52.533Z,9.45
2022-10-28T12:47:07.550Z,8.80
2022-10-28T12:52:22.899Z,9.45
2022-10-28T12:57:38.514Z,8.73
2022-10-28T13:02:53.809Z,8.32
2022-10-28T13:08:09.594Z,6.82
2022-10-28T13:13:24.583Z,7.90
2022-10-28T13:18:39.527Z,7.75
2022-10-28T13:23:54.279Z,7.57
2022-10-28T13:29:09.516Z,7.15
2022-10-28T13:34:24.558Z,7.72
2022-10-28T13:39:39.521Z,6.55
2022-10-28T13:44:54.568Z,6.78
2022-10-28T13:50:09.715Z,6.95
2022-10-28T13:55:24.905Z,6.90
2022-10-28T14:00:40.841Z,6.25
2022-10-28T14:05:56.686Z,6.15
2022-10-28T14:11:11.560Z,6.72
2022-10-28T14:16:26.318Z,6.85
2022-10-28T14:21:41.624Z,5.38
2022-10-28T14:26:56.568Z,5.65
2022-10-28T14:32:11.566Z,6.05
2022-10-28T14:37:28.430Z,6.13
2022-10-28T14:42:43.363Z,6.72
2022-10-28T14:47:58.976Z,6.05
2022-10-28T14:53:14.525Z,5.35
2022-10-28T14:58:29.534Z,5.57
2022-10-28T15:03:44.328Z,5.28
2022-10-28T15:08:59.282Z,5.47
2022-10-28T15:14:14.538Z,5.20
2022-10-28T15:19:29.547Z,5.25
2022-10-28T15:24:47.111Z,4.78
2022-10-28T15:30:02.586Z,4.80
2022-10-28T15:35:17.591Z,5.72
2022-10-28T15:40:32.656Z,4.60
2022-10-28T15:45:47.562Z,4.72
2022-10-28T15:51:02.529Z,5.15
2022-10-28T15:56:17.566Z,4.90
2022-10-28T16:01:32.671Z,5.05
2022-10-28T16:06:48.884Z,4.28
2022-10-28T16:12:04.605Z,4.88
2022-10-28T16:17:19.333Z,5.20
2022-10-28T16:22:34.831Z,5.47
2022-10-28T16:27:50.575Z,4.90
2022-10-28T16:33:05.321Z,4.50
2022-10-28T16:38:20.564Z,5.30
2022-10-28T16:43:35.535Z,4.85
2022-10-28T16:48:50.559Z,4.80
2022-10-28T16:54:05.591Z,4.10
2022-10-28T16:59:20.580Z,4.22
2022-10-28T17:04:35.552Z,4.35
2022-10-28T17:09:50.532Z,4.50
2022-10-28T17:15:05.589Z,5.15
2022-10-28T17:20:20.602Z,4.95
2022-10-28T17:25:35.934Z,4.50
2022-10-28T17:30:51.584Z,4.85
2022-10-28T17:36:06.860Z,5.40
2022-10-28T17:42:00.599Z,4.15
2022-10-28T17:47:15.583Z,4.53
2022-10-28T17:52:34.217Z,5.30
2022-10-28T17:57:53.827Z,4.60
2022-10-28T18:03:09.569Z,4.93
2022-10-28T18:08:24.839Z,5.57
2022-10-28T18:13:40.583Z,5.57
2022-10-28T18:18:55.387Z,4.80
2022-10-28T18:24:10.584Z,5.82
2022-10-28T18:29:25.675Z,5.65
2022-10-28T18:34:40.675Z,5.13
2022-10-28T18:39:55.637Z,5.43
2022-10-28T18:45:10.868Z,5.50
2022-10-28T18:50:26.908Z,4.68
2022-10-28T18:55:42.891Z,4.97
2022-10-28T19:00:58.328Z,4.85
2022-10-28T19:06:13.548Z,5.60
2022-10-28T19:11:28.342Z,4.43
2022-10-28T19:16:43.583Z,4.38
2022-10-28T19:21:58.895Z,4.22
2022-10-28T19:27:14.603Z,4.15
2022-10-28T19:32:29.587Z,5.18
2022-10-28T19:37:45.640Z,4.57
2022-10-28T19:43:00.624Z,5.32
2022-10-28T19:48:15.621Z,4.03
2022-10-28T19:53:30.574Z,4.43
2022-10-28T19:58:45.588Z,3.65
2022-10-28T20:04:00.582Z,5.13
2022-10-28T20:09:15.644Z,4.43
2022-10-28T20:14:30.597Z,5.45
2022-10-28T20:19:49.231Z,4.32
2022-10-28T20:25:05.576Z,4.38
2022-10-28T20:30:20.642Z,4.30
2022-10-28T20:35:35.994Z,4.63
2022-10-28T20:40:51.595Z,4.82
2022-10-28T20:46:06.558Z,4.30
2022-10-28T20:51:21.568Z,5.05
2022-10-28T20:56:36.395Z,4.72
2022-10-28T21:01:51.699Z,4.45
2022-10-28T21:07:07.543Z,4.20
2022-10-28T21:12:22.327Z,3.55
2022-10-28T21:17:37.871Z,3.88
2022-10-28T21:22:53.844Z,4.68
2022-10-28T21:28:09.861Z,5.13
2022-10-28T21:33:25.591Z,4.57
2022-10-28T21:38:40.374Z,4.57
2022-10-28T21:43:55.591Z,3.80
2022-10-28T21:49:10.574Z,4.05
2022-10-28T21:54:25.610Z,3.72
2022-10-28T21:59:40.553Z,4.18
2022-10-28T22:04:55.569Z,4.63
2022-10-28T22:10:10.851Z,4.22
2022-10-28T22:15:26.560Z,3.88
2022-10-28T22:20:41.905Z,4.63
2022-10-28T22:25:57.895Z,4.57
2022-10-28T22:31:13.616Z,4.13
2022-10-28T22:36:28.815Z,4.28
2022-10-28T22:41:44.645Z,3.60
2022-10-28T22:52:15.894Z,3.47
2022-10-28T22:57:31.965Z,4.68
2022-10-28T23:02:48.048Z,4.07
2022-10-28T23:08:03.918Z,3.60
2022-10-28T23:13:19.583Z,3.65
2022-10-28T23:18:34.690Z,4.07
2022-10-28T23:23:52.913Z,3.85
2022-10-28T23:29:09.579Z,3.90
2022-10-28T23:34:24.607Z,3.28
2022-10-28T23:39:39.650Z,4.32
2022-10-28T23:44:54.628Z,3.53
2022-10-28T23:50:09.651Z,4.05
2022-10-28T23:55:24.597Z,3.25
